sensor_id;sensor_type;location;lat;lon;timestamp;P1;durP1;ratioP1;P2;durP2;ratioP2
47431;SDS011;33183;52.290;6.144;2023-09-08T00:00:22;5.43;;;3.72;;
47431;SDS011;33183;52.290;6.144;2023-09-08T00:02:47;4.50;;;3.88;;
47431;SDS011;33183;52.290;6.144;2023-09-08T00:05:12;3.85;;;3.45;;
47431;SDS011;33183;52.290;6.144;2023-09-08T00:07:38;4.72;;;4.25;;
47431;SDS011;33183;52.290;6.144;2023-09-08T00:10:03;3.70;;;3.30;;
47431;SDS011;33183;52.290;6.144;2023-09-08T00:12:29;4.93;;;3.42;;
47431;SDS011;33183;52.290;6.144;2023-09-08T00:14:54;4.00;;;3.58;;
47431;SDS011;33183;52.290;6.144;2023-09-08T00:17:19;4.35;;;3.78;;
47431;SDS011;33183;52.290;6.144;2023-09-08T00:19:45;4.25;;;3.42;;
47431;SDS011;33183;52.290;6.144;2023-09-08T00:22:10;6.28;;;3.80;;
47431;SDS011;33183;52.290;6.144;2023-09-08T00:24:35;5.60;;;3.95;;
47431;SDS011;33183;52.290;6.144;2023-09-08T00:27:01;4.25;;;3.85;;
47431;SDS011;33183;52.290;6.144;2023-09-08T00:29:26;5.43;;;3.95;;
47431;SDS011;33183;52.290;6.144;2023-09-08T00:31:51;5.03;;;3.63;;
47431;SDS011;33183;52.290;6.144;2023-09-08T00:34:17;4.47;;;3.78;;
47431;SDS011;33183;52.290;6.144;2023-09-08T00:36:42;3.95;;;3.42;;
47431;SDS011;33183;52.290;6.144;2023-09-08T00:39:07;3.42;;;3.13;;
47431;SDS011;33183;52.290;6.144;2023-09-08T00:41:33;3.95;;;3.53;;
47431;SDS011;33183;52.290;6.144;2023-09-08T00:43:58;3.83;;;3.42;;
47431;SDS011;33183;52.290;6.144;2023-09-08T00:46:23;3.95;;;3.55;;
47431;SDS011;33183;52.290;6.144;2023-09-08T00:48:50;4.88;;;3.50;;
47431;SDS011;33183;52.290;6.144;2023-09-08T00:51:15;4.15;;;3.63;;
47431;SDS011;33183;52.290;6.144;2023-09-08T00:53:40;7.15;;;4.13;;
47431;SDS011;33183;52.290;6.144;2023-09-08T00:56:06;4.32;;;3.70;;
47431;SDS011;33183;52.290;6.144;2023-09-08T00:58:32;4.00;;;3.42;;
47431;SDS011;33183;52.290;6.144;2023-09-08T01:00:57;4.95;;;3.63;;
47431;SDS011;33183;52.290;6.144;2023-09-08T01:03:23;4.25;;;3.53;;
47431;SDS011;33183;52.290;6.144;2023-09-08T01:05:49;4.28;;;3.88;;
47431;SDS011;33183;52.290;6.144;2023-09-08T01:08:14;3.70;;;3.30;;
47431;SDS011;33183;52.290;6.144;2023-09-08T01:10:40;3.88;;;3.20;;
47431;SDS011;33183;52.290;6.144;2023-09-08T01:13:07;4.32;;;3.20;;
47431;SDS011;33183;52.290;6.144;2023-09-08T01:15:32;4.25;;;3.42;;
47431;SDS011;33183;52.290;6.144;2023-09-08T01:17:57;3.80;;;2.90;;
47431;SDS011;33183;52.290;6.144;2023-09-08T01:20:27;4.32;;;3.47;;
47431;SDS011;33183;52.290;6.144;2023-09-08T01:23:12;3.75;;;3.45;;
47431;SDS011;33183;52.290;6.144;2023-09-08T01:25:59;4.50;;;3.60;;
47431;SDS011;33183;52.290;6.144;2023-09-08T01:28:30;3.72;;;3.33;;
47431;SDS011;33183;52.290;6.144;2023-09-08T01:30:56;5.03;;;3.88;;
47431;SDS011;33183;52.290;6.144;2023-09-08T01:33:22;4.65;;;3.78;;
47431;SDS011;33183;52.290;6.144;2023-09-08T01:35:47;3.50;;;3.20;;
47431;SDS011;33183;52.290;6.144;2023-09-08T01:38:13;4.30;;;3.28;;
47431;SDS011;33183;52.290;6.144;2023-09-08T01:40:39;3.50;;;3.20;;
47431;SDS011;33183;52.290;6.144;2023-09-08T01:43:04;4.07;;;3.42;;
47431;SDS011;33183;52.290;6.144;2023-09-08T01:45:30;4.30;;;3.60;;
47431;SDS011;33183;52.290;6.144;2023-09-08T01:47:55;3.35;;;3.05;;
47431;SDS011;33183;52.290;6.144;2023-09-08T01:50:20;3.85;;;3.45;;
47431;SDS011;33183;52.290;6.144;2023-09-08T01:52:46;3.70;;;3.40;;
47431;SDS011;33183;52.290;6.144;2023-09-08T01:55:11;3.92;;;3.38;;
47431;SDS011;33183;52.290;6.144;2023-09-08T01:57:37;4.68;;;3.88;;
47431;SDS011;33183;52.290;6.144;2023-09-08T02:00:02;4.00;;;3.60;;
47431;SDS011;33183;52.290;6.144;2023-09-08T02:02:31;3.58;;;3.28;;
47431;SDS011;33183;52.290;6.144;2023-09-08T02:04:56;3.65;;;3.35;;
47431;SDS011;33183;52.290;6.144;2023-09-08T02:07:21;3.28;;;2.92;;
47431;SDS011;33183;52.290;6.144;2023-09-08T02:09:47;3.65;;;3.25;;
47431;SDS011;33183;52.290;6.144;2023-09-08T02:12:12;4.70;;;3.65;;
47431;SDS011;33183;52.290;6.144;2023-09-08T02:14:37;3.38;;;3.08;;
47431;SDS011;33183;52.290;6.144;2023-09-08T02:17:02;4.03;;;3.63;;
47431;SDS011;33183;52.290;6.144;2023-09-08T02:19:28;3.90;;;3.45;;
47431;SDS011;33183;52.290;6.144;2023-09-08T02:21:53;4.18;;;3.38;;
47431;SDS011;33183;52.290;6.144;2023-09-08T02:24:19;3.75;;;3.33;;
47431;SDS011;33183;52.290;6.144;2023-09-08T02:26:44;3.92;;;3.53;;
47431;SDS011;33183;52.290;6.144;2023-09-08T02:29:09;3.75;;;3.35;;
47431;SDS011;33183;52.290;6.144;2023-09-08T02:31:34;4.20;;;3.35;;
47431;SDS011;33183;52.290;6.144;2023-09-08T02:34:00;3.30;;;3.00;;
47431;SDS011;33183;52.290;6.144;2023-09-08T02:36:25;3.45;;;2.90;;
47431;SDS011;33183;52.290;6.144;2023-09-08T02:38:55;3.63;;;3.20;;
47431;SDS011;33183;52.290;6.144;2023-09-08T02:41:21;4.10;;;3.35;;
47431;SDS011;33183;52.290;6.144;2023-09-08T02:43:47;3.60;;;3.30;;
47431;SDS011;33183;52.290;6.144;2023-09-08T02:46:12;3.92;;;3.35;;
47431;SDS011;33183;52.290;6.144;2023-09-08T02:48:38;3.65;;;3.00;;
47431;SDS011;33183;52.290;6.144;2023-09-08T02:51:04;4.05;;;3.45;;
47431;SDS011;33183;52.290;6.144;2023-09-08T02:53:29;4.20;;;3.40;;
47431;SDS011;33183;52.290;6.144;2023-09-08T02:55:55;4.65;;;3.50;;
47431;SDS011;33183;52.290;6.144;2023-09-08T02:58:21;4.22;;;3.47;;
47431;SDS011;33183;52.290;6.144;2023-09-08T03:00:46;4.65;;;3.47;;
47431;SDS011;33183;52.290;6.144;2023-09-08T03:03:12;3.40;;;3.10;;
47431;SDS011;33183;52.290;6.144;2023-09-08T03:05:37;4.78;;;3.33;;
47431;SDS011;33183;52.290;6.144;2023-09-08T03:08:03;3.72;;;3.10;;
47431;SDS011;33183;52.290;6.144;2023-09-08T03:10:28;3.90;;;3.50;;
47431;SDS011;33183;52.290;6.144;2023-09-08T03:12:54;3.53;;;3.20;;
47431;SDS011;33183;52.290;6.144;2023-09-08T03:15:19;3.88;;;2.92;;
47431;SDS011;33183;52.290;6.144;2023-09-08T03:17:45;4.00;;;3.13;;
47431;SDS011;33183;52.290;6.144;2023-09-08T03:20:10;3.30;;;3.00;;
47431;SDS011;33183;52.290;6.144;2023-09-08T03:22:36;3.80;;;3.42;;
47431;SDS011;33183;52.290;6.144;2023-09-08T03:25:01;4.18;;;3.17;;
47431;SDS011;33183;52.290;6.144;2023-09-08T03:27:27;4.47;;;3.42;;
47431;SDS011;33183;52.290;6.144;2023-09-08T03:29:52;3.88;;;3.45;;
47431;SDS011;33183;52.290;6.144;2023-09-08T03:32:17;3.42;;;3.13;;
47431;SDS011;33183;52.290;6.144;2023-09-08T03:34:42;3.88;;;3.05;;
47431;SDS011;33183;52.290;6.144;2023-09-08T03:37:08;4.10;;;2.92;;
47431;SDS011;33183;52.290;6.144;2023-09-08T03:39:33;3.50;;;3.10;;
47431;SDS011;33183;52.290;6.144;2023-09-08T03:41:58;4.10;;;3.22;;
47431;SDS011;33183;52.290;6.144;2023-09-08T03:44:24;3.80;;;3.50;;
47431;SDS011;33183;52.290;6.144;2023-09-08T03:46:49;4.13;;;3.55;;
47431;SDS011;33183;52.290;6.144;2023-09-08T03:49:14;3.90;;;3.20;;
47431;SDS011;33183;52.290;6.144;2023-09-08T03:51:39;3.40;;;3.10;;
47431;SDS011;33183;52.290;6.144;2023-09-08T03:54:05;5.35;;;3.35;;
47431;SDS011;33183;52.290;6.144;2023-09-08T03:56:30;4.53;;;3.72;;
47431;SDS011;33183;52.290;6.144;2023-09-08T03:58:56;4.30;;;3.90;;
47431;SDS011;33183;52.290;6.144;2023-09-08T04:01:21;3.90;;;2.95;;
47431;SDS011;33183;52.290;6.144;2023-09-08T04:03:46;4.15;;;3.75;;
47431;SDS011;33183;52.290;6.144;2023-09-08T04:06:12;3.50;;;3.15;;
47431;SDS011;33183;52.290;6.144;2023-09-08T04:08:37;4.28;;;3.85;;
47431;SDS011;33183;52.290;6.144;2023-09-08T04:11:02;4.18;;;3.75;;
47431;SDS011;33183;52.290;6.144;2023-09-08T04:13:27;3.70;;;3.30;;
47431;SDS011;33183;52.290;6.144;2023-09-08T04:15:53;4.60;;;3.53;;
47431;SDS011;33183;52.290;6.144;2023-09-08T04:18:18;4.00;;;3.60;;
47431;SDS011;33183;52.290;6.144;2023-09-08T04:20:43;3.88;;;3.47;;
47431;SDS011;33183;52.290;6.144;2023-09-08T04:23:09;4.45;;;3.58;;
47431;SDS011;33183;52.290;6.144;2023-09-08T04:25:34;4.13;;;3.38;;
47431;SDS011;33183;52.290;6.144;2023-09-08T04:28:01;3.85;;;3.35;;
47431;SDS011;33183;52.290;6.144;2023-09-08T04:30:27;3.72;;;3.42;;
47431;SDS011;33183;52.290;6.144;2023-09-08T04:32:52;4.25;;;3.70;;
47431;SDS011;33183;52.290;6.144;2023-09-08T04:35:17;5.88;;;3.58;;
47431;SDS011;33183;52.290;6.144;2023-09-08T04:37:43;4.18;;;3.45;;
47431;SDS011;33183;52.290;6.144;2023-09-08T04:40:08;3.80;;;3.50;;
47431;SDS011;33183;52.290;6.144;2023-09-08T04:42:34;3.70;;;3.25;;
47431;SDS011;33183;52.290;6.144;2023-09-08T04:45:00;4.13;;;3.42;;
47431;SDS011;33183;52.290;6.144;2023-09-08T04:47:25;4.15;;;3.75;;
47431;SDS011;33183;52.290;6.144;2023-09-08T04:49:50;4.47;;;3.90;;
47431;SDS011;33183;52.290;6.144;2023-09-08T04:52:16;4.25;;;3.38;;
47431;SDS011;33183;52.290;6.144;2023-09-08T04:54:41;4.50;;;4.10;;
47431;SDS011;33183;52.290;6.144;2023-09-08T04:57:06;3.47;;;3.17;;
47431;SDS011;33183;52.290;6.144;2023-09-08T04:59:31;4.47;;;3.30;;
47431;SDS011;33183;52.290;6.144;2023-09-08T05:01:57;3.72;;;3.42;;
47431;SDS011;33183;52.290;6.144;2023-09-08T05:04:23;4.10;;;3.70;;
47431;SDS011;33183;52.290;6.144;2023-09-08T05:06:48;3.80;;;3.40;;
47431;SDS011;33183;52.290;6.144;2023-09-08T05:09:13;4.18;;;3.60;;
47431;SDS011;33183;52.290;6.144;2023-09-08T05:11:39;4.40;;;4.00;;
47431;SDS011;33183;52.290;6.144;2023-09-08T05:14:05;4.05;;;3.60;;
47431;SDS011;33183;52.290;6.144;2023-09-08T05:16:30;3.70;;;3.40;;
47431;SDS011;33183;52.290;6.144;2023-09-08T05:19:10;5.55;;;4.10;;
47431;SDS011;33183;52.290;6.144;2023-09-08T05:21:37;4.47;;;3.80;;
47431;SDS011;33183;52.290;6.144;2023-09-08T05:24:02;3.88;;;3.40;;
47431;SDS011;33183;52.290;6.144;2023-09-08T05:26:28;4.28;;;3.72;;
47431;SDS011;33183;52.290;6.144;2023-09-08T05:28:53;4.63;;;3.53;;
47431;SDS011;33183;52.290;6.144;2023-09-08T05:31:18;4.65;;;3.70;;
47431;SDS011;33183;52.290;6.144;2023-09-08T05:33:44;4.10;;;3.65;;
47431;SDS011;33183;52.290;6.144;2023-09-08T05:36:09;4.25;;;3.85;;
47431;SDS011;33183;52.290;6.144;2023-09-08T05:38:34;4.05;;;3.65;;
47431;SDS011;33183;52.290;6.144;2023-09-08T05:41:00;4.80;;;3.72;;
47431;SDS011;33183;52.290;6.144;2023-09-08T05:43:25;4.75;;;3.33;;
47431;SDS011;33183;52.290;6.144;2023-09-08T05:45:51;4.00;;;3.55;;
47431;SDS011;33183;52.290;6.144;2023-09-08T05:48:16;4.43;;;3.70;;
47431;SDS011;33183;52.290;6.144;2023-09-08T05:50:42;4.18;;;3.65;;
47431;SDS011;33183;52.290;6.144;2023-09-08T05:53:07;4.55;;;3.65;;
47431;SDS011;33183;52.290;6.144;2023-09-08T05:55:32;4.13;;;3.55;;
47431;SDS011;33183;52.290;6.144;2023-09-08T05:57:58;4.45;;;4.05;;
47431;SDS011;33183;52.290;6.144;2023-09-08T06:00:23;4.10;;;3.70;;
47431;SDS011;33183;52.290;6.144;2023-09-08T06:02:48;4.38;;;3.97;;
47431;SDS011;33183;52.290;6.144;2023-09-08T06:05:13;4.70;;;3.97;;
47431;SDS011;33183;52.290;6.144;2023-09-08T06:07:39;4.45;;;3.60;;
47431;SDS011;33183;52.290;6.144;2023-09-08T06:10:04;6.07;;;4.30;;
47431;SDS011;33183;52.290;6.144;2023-09-08T06:12:30;4.07;;;3.67;;
47431;SDS011;33183;52.290;6.144;2023-09-08T06:14:55;3.95;;;3.55;;
47431;SDS011;33183;52.290;6.144;2023-09-08T06:17:20;11.57;;;9.05;;
47431;SDS011;33183;52.290;6.144;2023-09-08T06:19:46;11.10;;;8.23;;
47431;SDS011;33183;52.290;6.144;2023-09-08T06:22:11;11.05;;;9.27;;
47431;SDS011;33183;52.290;6.144;2023-09-08T06:24:36;12.13;;;9.55;;
47431;SDS011;33183;52.290;6.144;2023-09-08T06:27:02;14.02;;;10.55;;
47431;SDS011;33183;52.290;6.144;2023-09-08T06:29:27;13.40;;;9.70;;
47431;SDS011;33183;52.290;6.144;2023-09-08T06:31:52;11.25;;;10.15;;
47431;SDS011;33183;52.290;6.144;2023-09-08T06:34:18;14.07;;;10.13;;
47431;SDS011;33183;52.290;6.144;2023-09-08T06:36:46;11.88;;;9.85;;
47431;SDS011;33183;52.290;6.144;2023-09-08T06:39:12;13.25;;;9.65;;
47431;SDS011;33183;52.290;6.144;2023-09-08T06:41:37;15.20;;;11.23;;
47431;SDS011;33183;52.290;6.144;2023-09-08T06:44:03;13.00;;;10.48;;
47431;SDS011;33183;52.290;6.144;2023-09-08T06:46:28;12.98;;;10.60;;
47431;SDS011;33183;52.290;6.144;2023-09-08T06:48:54;12.70;;;10.57;;
47431;SDS011;33183;52.290;6.144;2023-09-08T06:51:19;12.20;;;10.75;;
47431;SDS011;33183;52.290;6.144;2023-09-08T06:53:44;12.88;;;11.35;;
47431;SDS011;33183;52.290;6.144;2023-09-08T06:56:20;14.00;;;10.75;;
47431;SDS011;33183;52.290;6.144;2023-09-08T06:58:45;12.93;;;10.88;;
47431;SDS011;33183;52.290;6.144;2023-09-08T07:01:10;11.50;;;10.30;;
47431;SDS011;33183;52.290;6.144;2023-09-08T07:03:36;12.32;;;10.35;;
47431;SDS011;33183;52.290;6.144;2023-09-08T07:06:01;13.65;;;10.55;;
47431;SDS011;33183;52.290;6.144;2023-09-08T07:08:27;16.77;;;11.23;;
47431;SDS011;33183;52.290;6.144;2023-09-08T07:10:52;11.35;;;10.15;;
47431;SDS011;33183;52.290;6.144;2023-09-08T07:13:19;11.88;;;10.18;;
47431;SDS011;33183;52.290;6.144;2023-09-08T07:15:44;11.32;;;9.95;;
47431;SDS011;33183;52.290;6.144;2023-09-08T07:18:09;13.48;;;9.80;;
47431;SDS011;33183;52.290;6.144;2023-09-08T07:20:35;11.68;;;9.77;;
47431;SDS011;33183;52.290;6.144;2023-09-08T07:23:00;12.18;;;9.88;;
47431;SDS011;33183;52.290;6.144;2023-09-08T07:25:25;13.32;;;8.85;;
47431;SDS011;33183;52.290;6.144;2023-09-08T07:27:50;10.15;;;9.02;;
47431;SDS011;33183;52.290;6.144;2023-09-08T07:30:18;10.93;;;8.85;;
47431;SDS011;33183;52.290;6.144;2023-09-08T07:32:44;11.05;;;9.00;;
47431;SDS011;33183;52.290;6.144;2023-09-08T07:35:09;9.52;;;8.40;;
47431;SDS011;33183;52.290;6.144;2023-09-08T07:37:39;13.70;;;8.90;;
47431;SDS011;33183;52.290;6.144;2023-09-08T07:40:05;10.93;;;8.07;;
47431;SDS011;33183;52.290;6.144;2023-09-08T07:42:31;8.93;;;7.40;;
47431;SDS011;33183;52.290;6.144;2023-09-08T07:44:56;11.25;;;7.95;;
47431;SDS011;33183;52.290;6.144;2023-09-08T07:47:22;8.63;;;7.03;;
47431;SDS011;33183;52.290;6.144;2023-09-08T07:49:47;9.88;;;6.80;;
47431;SDS011;33183;52.290;6.144;2023-09-08T07:52:12;7.55;;;6.63;;
47431;SDS011;33183;52.290;6.144;2023-09-08T07:54:38;6.55;;;5.85;;
47431;SDS011;33183;52.290;6.144;2023-09-08T07:57:03;7.53;;;5.97;;
47431;SDS011;33183;52.290;6.144;2023-09-08T07:59:29;8.35;;;6.10;;
47431;SDS011;33183;52.290;6.144;2023-09-08T08:01:54;9.02;;;6.45;;
47431;SDS011;33183;52.290;6.144;2023-09-08T08:04:19;8.23;;;6.13;;
47431;SDS011;33183;52.290;6.144;2023-09-08T08:06:45;9.32;;;5.80;;
47431;SDS011;33183;52.290;6.144;2023-09-08T08:09:10;6.75;;;5.68;;
47431;SDS011;33183;52.290;6.144;2023-09-08T08:11:35;7.38;;;5.63;;
47431;SDS011;33183;52.290;6.144;2023-09-08T08:14:00;7.28;;;5.88;;
47431;SDS011;33183;52.290;6.144;2023-09-08T08:16:26;8.25;;;5.93;;
47431;SDS011;33183;52.290;6.144;2023-09-08T08:18:52;8.35;;;6.07;;
47431;SDS011;33183;52.290;6.144;2023-09-08T08:21:17;7.18;;;5.88;;
47431;SDS011;33183;52.290;6.144;2023-09-08T08:23:43;7.20;;;6.30;;
47431;SDS011;33183;52.290;6.144;2023-09-08T08:26:08;7.30;;;5.65;;
47431;SDS011;33183;52.290;6.144;2023-09-08T08:28:34;8.25;;;5.50;;
47431;SDS011;33183;52.290;6.144;2023-09-08T08:30:59;8.38;;;6.00;;
47431;SDS011;33183;52.290;6.144;2023-09-08T08:33:24;8.10;;;6.05;;
47431;SDS011;33183;52.290;6.144;2023-09-08T08:35:51;7.00;;;5.13;;
47431;SDS011;33183;52.290;6.144;2023-09-08T08:38:17;7.93;;;6.45;;
47431;SDS011;33183;52.290;6.144;2023-09-08T08:40:43;7.68;;;5.00;;
47431;SDS011;33183;52.290;6.144;2023-09-08T08:43:08;7.70;;;5.50;;
47431;SDS011;33183;52.290;6.144;2023-09-08T08:45:34;8.07;;;5.28;;
47431;SDS011;33183;52.290;6.144;2023-09-08T08:48:01;8.70;;;5.80;;
47431;SDS011;33183;52.290;6.144;2023-09-08T08:50:27;7.97;;;5.07;;
47431;SDS011;33183;52.290;6.144;2023-09-08T08:52:52;5.78;;;4.97;;
47431;SDS011;33183;52.290;6.144;2023-09-08T08:55:17;6.25;;;5.20;;
47431;SDS011;33183;52.290;6.144;2023-09-08T08:57:44;7.68;;;5.43;;
47431;SDS011;33183;52.290;6.144;2023-09-08T09:00:10;7.22;;;5.18;;
47431;SDS011;33183;52.290;6.144;2023-09-08T09:02:40;12.00;;;5.90;;
47431;SDS011;33183;52.290;6.144;2023-09-08T09:05:07;7.45;;;5.82;;
47431;SDS011;33183;52.290;6.144;2023-09-08T09:07:36;6.50;;;4.97;;
47431;SDS011;33183;52.290;6.144;2023-09-08T09:10:02;6.40;;;4.75;;
47431;SDS011;33183;52.290;6.144;2023-09-08T09:12:29;7.10;;;5.20;;
47431;SDS011;33183;52.290;6.144;2023-09-08T09:14:54;7.40;;;5.35;;
47431;SDS011;33183;52.290;6.144;2023-09-08T09:17:19;7.70;;;5.03;;
47431;SDS011;33183;52.290;6.144;2023-09-08T09:19:45;5.57;;;5.00;;
47431;SDS011;33183;52.290;6.144;2023-09-08T09:22:10;6.40;;;5.45;;
47431;SDS011;33183;52.290;6.144;2023-09-08T09:27:03;5.97;;;5.10;;
47431;SDS011;33183;52.290;6.144;2023-09-08T09:29:30;6.15;;;4.55;;
47431;SDS011;33183;52.290;6.144;2023-09-08T09:31:57;6.93;;;4.63;;
47431;SDS011;33183;52.290;6.144;2023-09-08T09:34:27;5.28;;;4.78;;
47431;SDS011;33183;52.290;6.144;2023-09-08T09:36:52;5.20;;;4.28;;
47431;SDS011;33183;52.290;6.144;2023-09-08T09:39:19;6.30;;;4.65;;
47431;SDS011;33183;52.290;6.144;2023-09-08T09:41:46;7.40;;;5.20;;
47431;SDS011;33183;52.290;6.144;2023-09-08T09:44:11;5.70;;;4.85;;
47431;SDS011;33183;52.290;6.144;2023-09-08T09:46:37;6.00;;;5.40;;
47431;SDS011;33183;52.290;6.144;2023-09-08T09:49:02;5.90;;;4.68;;
47431;SDS011;33183;52.290;6.144;2023-09-08T09:51:28;6.30;;;4.50;;
47431;SDS011;33183;52.290;6.144;2023-09-08T09:53:54;6.25;;;4.43;;
47431;SDS011;33183;52.290;6.144;2023-09-08T09:56:19;5.35;;;4.60;;
47431;SDS011;33183;52.290;6.144;2023-09-08T09:58:45;6.90;;;4.90;;
47431;SDS011;33183;52.290;6.144;2023-09-08T10:01:11;6.43;;;4.68;;
47431;SDS011;33183;52.290;6.144;2023-09-08T10:03:38;5.35;;;4.28;;
47431;SDS011;33183;52.290;6.144;2023-09-08T10:06:04;5.75;;;4.50;;
47431;SDS011;33183;52.290;6.144;2023-09-08T10:08:30;5.85;;;4.70;;
47431;SDS011;33183;52.290;6.144;2023-09-08T10:10:57;6.55;;;4.88;;
47431;SDS011;33183;52.290;6.144;2023-09-08T10:13:26;6.05;;;5.18;;
47431;SDS011;33183;52.290;6.144;2023-09-08T10:15:57;6.03;;;4.72;;
47431;SDS011;33183;52.290;6.144;2023-09-08T10:18:23;6.25;;;5.32;;
47431;SDS011;33183;52.290;6.144;2023-09-08T10:20:48;5.43;;;4.75;;
47431;SDS011;33183;52.290;6.144;2023-09-08T10:25:50;6.10;;;4.43;;
47431;SDS011;33183;52.290;6.144;2023-09-08T10:28:19;5.28;;;4.25;;
47431;SDS011;33183;52.290;6.144;2023-09-08T10:30:46;5.63;;;5.07;;
47431;SDS011;33183;52.290;6.144;2023-09-08T10:33:13;5.30;;;4.80;;
47431;SDS011;33183;52.290;6.144;2023-09-08T10:35:38;5.13;;;4.55;;
47431;SDS011;33183;52.290;6.144;2023-09-08T10:38:23;5.35;;;4.43;;
47431;SDS011;33183;52.290;6.144;2023-09-08T10:40:50;4.85;;;4.35;;
47431;SDS011;33183;52.290;6.144;2023-09-08T10:43:15;6.63;;;4.68;;
47431;SDS011;33183;52.290;6.144;2023-09-08T10:45:42;4.60;;;4.10;;
47431;SDS011;33183;52.290;6.144;2023-09-08T10:48:08;5.75;;;4.35;;
47431;SDS011;33183;52.290;6.144;2023-09-08T10:50:35;5.95;;;5.00;;
47431;SDS011;33183;52.290;6.144;2023-09-08T10:53:15;5.97;;;4.90;;
47431;SDS011;33183;52.290;6.144;2023-09-08T10:55:45;5.72;;;4.15;;
47431;SDS011;33183;52.290;6.144;2023-09-08T10:58:35;5.65;;;4.72;;
47431;SDS011;33183;52.290;6.144;2023-09-08T11:01:03;4.82;;;4.30;;
47431;SDS011;33183;52.290;6.144;2023-09-08T11:06:07;5.00;;;4.00;;
47431;SDS011;33183;52.290;6.144;2023-09-08T11:08:42;6.03;;;4.38;;
47431;SDS011;33183;52.290;6.144;2023-09-08T11:11:11;5.13;;;3.92;;
47431;SDS011;33183;52.290;6.144;2023-09-08T11:13:38;6.00;;;4.75;;
47431;SDS011;33183;52.290;6.144;2023-09-08T11:16:07;4.65;;;4.15;;
47431;SDS011;33183;52.290;6.144;2023-09-08T11:18:33;4.57;;;4.18;;
47431;SDS011;33183;52.290;6.144;2023-09-08T11:21:00;5.53;;;4.82;;
47431;SDS011;33183;52.290;6.144;2023-09-08T11:23:27;5.32;;;4.63;;
47431;SDS011;33183;52.290;6.144;2023-09-08T11:25:52;4.85;;;4.32;;
47431;SDS011;33183;52.290;6.144;2023-09-08T11:28:18;4.75;;;3.90;;
47431;SDS011;33183;52.290;6.144;2023-09-08T11:30:48;4.70;;;4.20;;
47431;SDS011;33183;52.290;6.144;2023-09-08T11:33:18;4.72;;;4.20;;
47431;SDS011;33183;52.290;6.144;2023-09-08T11:35:47;5.05;;;4.55;;
47431;SDS011;33183;52.290;6.144;2023-09-08T11:38:13;5.30;;;4.53;;
47431;SDS011;33183;52.290;6.144;2023-09-08T11:40:39;3.88;;;3.45;;
47431;SDS011;33183;52.290;6.144;2023-09-08T11:43:05;4.68;;;4.07;;
47431;SDS011;33183;52.290;6.144;2023-09-08T11:45:31;5.13;;;4.63;;
47431;SDS011;33183;52.290;6.144;2023-09-08T11:47:59;4.88;;;4.20;;
47431;SDS011;33183;52.290;6.144;2023-09-08T11:50:24;4.63;;;4.10;;
47431;SDS011;33183;52.290;6.144;2023-09-08T11:52:50;4.85;;;4.15;;
47431;SDS011;33183;52.290;6.144;2023-09-08T11:55:17;4.90;;;4.20;;
47431;SDS011;33183;52.290;6.144;2023-09-08T11:57:44;4.28;;;3.88;;
47431;SDS011;33183;52.290;6.144;2023-09-08T12:00:11;4.88;;;4.40;;
47431;SDS011;33183;52.290;6.144;2023-09-08T12:02:42;4.60;;;4.20;;
47431;SDS011;33183;52.290;6.144;2023-09-08T12:05:19;5.47;;;4.53;;
47431;SDS011;33183;52.290;6.144;2023-09-08T12:07:45;5.28;;;4.32;;
47431;SDS011;33183;52.290;6.144;2023-09-08T12:10:10;5.30;;;4.75;;
47431;SDS011;33183;52.290;6.144;2023-09-08T12:12:49;5.18;;;4.15;;
47431;SDS011;33183;52.290;6.144;2023-09-08T12:17:57;4.35;;;3.95;;
47431;SDS011;33183;52.290;6.144;2023-09-08T12:20:23;5.20;;;4.22;;
47431;SDS011;33183;52.290;6.144;2023-09-08T12:22:48;4.38;;;3.92;;
47431;SDS011;33183;52.290;6.144;2023-09-08T12:25:17;5.53;;;4.07;;
47431;SDS011;33183;52.290;6.144;2023-09-08T12:27:44;4.05;;;3.58;;
47431;SDS011;33183;52.290;6.144;2023-09-08T12:30:16;4.47;;;3.90;;
47431;SDS011;33183;52.290;6.144;2023-09-08T12:32:44;5.78;;;4.25;;
47431;SDS011;33183;52.290;6.144;2023-09-08T12:35:10;4.90;;;4.15;;
47431;SDS011;33183;52.290;6.144;2023-09-08T12:37:36;4.15;;;3.75;;
47431;SDS011;33183;52.290;6.144;2023-09-08T12:40:03;5.05;;;4.15;;
47431;SDS011;33183;52.290;6.144;2023-09-08T12:42:29;4.38;;;3.97;;
47431;SDS011;33183;52.290;6.144;2023-09-08T12:44:54;4.53;;;4.13;;
47431;SDS011;33183;52.290;6.144;2023-09-08T12:47:20;4.80;;;4.28;;
47431;SDS011;33183;52.290;6.144;2023-09-08T12:49:45;4.20;;;3.80;;
47431;SDS011;33183;52.290;6.144;2023-09-08T12:52:11;4.32;;;3.92;;
47431;SDS011;33183;52.290;6.144;2023-09-08T12:54:36;4.00;;;3.60;;
47431;SDS011;33183;52.290;6.144;2023-09-08T12:57:02;4.53;;;3.97;;
47431;SDS011;33183;52.290;6.144;2023-09-08T12:59:27;4.53;;;4.10;;
47431;SDS011;33183;52.290;6.144;2023-09-08T13:01:53;4.57;;;4.10;;
47431;SDS011;33183;52.290;6.144;2023-09-08T13:04:18;4.55;;;4.10;;
47431;SDS011;33183;52.290;6.144;2023-09-08T13:06:44;4.00;;;3.53;;
47431;SDS011;33183;52.290;6.144;2023-09-08T13:09:09;4.45;;;4.05;;
47431;SDS011;33183;52.290;6.144;2023-09-08T13:11:34;4.95;;;4.00;;
47431;SDS011;33183;52.290;6.144;2023-09-08T13:14:00;4.80;;;4.10;;
47431;SDS011;33183;52.290;6.144;2023-09-08T13:16:25;4.40;;;4.00;;
47431;SDS011;33183;52.290;6.144;2023-09-08T13:18:50;4.57;;;3.75;;
47431;SDS011;33183;52.290;6.144;2023-09-08T13:21:16;4.38;;;3.60;;
47431;SDS011;33183;52.290;6.144;2023-09-08T13:23:41;4.65;;;4.03;;
47431;SDS011;33183;52.290;6.144;2023-09-08T13:26:07;4.53;;;4.13;;
47431;SDS011;33183;52.290;6.144;2023-09-08T13:28:32;4.95;;;4.20;;
47431;SDS011;33183;52.290;6.144;2023-09-08T13:30:57;4.75;;;4.25;;
47431;SDS011;33183;52.290;6.144;2023-09-08T13:33:22;5.03;;;4.15;;
47431;SDS011;33183;52.290;6.144;2023-09-08T13:35:48;4.80;;;4.40;;
47431;SDS011;33183;52.290;6.144;2023-09-08T13:38:13;4.43;;;3.92;;
47431;SDS011;33183;52.290;6.144;2023-09-08T13:40:38;4.45;;;4.05;;
47431;SDS011;33183;52.290;6.144;2023-09-08T13:43:04;4.28;;;3.88;;
47431;SDS011;33183;52.290;6.144;2023-09-08T13:45:30;4.45;;;3.95;;
47431;SDS011;33183;52.290;6.144;2023-09-08T13:47:55;4.57;;;4.00;;
47431;SDS011;33183;52.290;6.144;2023-09-08T13:50:21;4.38;;;3.97;;
47431;SDS011;33183;52.290;6.144;2023-09-08T13:52:48;4.13;;;3.72;;
47431;SDS011;33183;52.290;6.144;2023-09-08T13:55:14;4.38;;;3.85;;
47431;SDS011;33183;52.290;6.144;2023-09-08T13:57:39;4.15;;;3.70;;
47431;SDS011;33183;52.290;6.144;2023-09-08T14:00:04;4.18;;;3.78;;
47431;SDS011;33183;52.290;6.144;2023-09-08T14:02:30;5.35;;;3.78;;
47431;SDS011;33183;52.290;6.144;2023-09-08T14:04:55;4.20;;;3.80;;
47431;SDS011;33183;52.290;6.144;2023-09-08T14:07:21;5.32;;;3.83;;
47431;SDS011;33183;52.290;6.144;2023-09-08T14:09:46;4.47;;;3.78;;
47431;SDS011;33183;52.290;6.144;2023-09-08T14:12:11;4.47;;;4.07;;
47431;SDS011;33183;52.290;6.144;2023-09-08T14:14:37;4.35;;;3.95;;
47431;SDS011;33183;52.290;6.144;2023-09-08T14:17:02;5.47;;;4.85;;
47431;SDS011;33183;52.290;6.144;2023-09-08T14:19:28;4.55;;;4.00;;
47431;SDS011;33183;52.290;6.144;2023-09-08T14:21:53;4.80;;;3.88;;
47431;SDS011;33183;52.290;6.144;2023-09-08T14:24:18;5.00;;;4.50;;
47431;SDS011;33183;52.290;6.144;2023-09-08T14:26:44;4.50;;;3.92;;
47431;SDS011;33183;52.290;6.144;2023-09-08T14:29:10;4.53;;;4.13;;
47431;SDS011;33183;52.290;6.144;2023-09-08T14:31:35;4.65;;;4.25;;
47431;SDS011;33183;52.290;6.144;2023-09-08T14:34:00;4.47;;;4.07;;
47431;SDS011;33183;52.290;6.144;2023-09-08T14:36:26;4.95;;;3.85;;
47431;SDS011;33183;52.290;6.144;2023-09-08T14:38:51;4.65;;;4.00;;
47431;SDS011;33183;52.290;6.144;2023-09-08T14:41:16;4.45;;;4.05;;
47431;SDS011;33183;52.290;6.144;2023-09-08T14:43:42;5.22;;;3.55;;
47431;SDS011;33183;52.290;6.144;2023-09-08T14:46:07;5.05;;;4.10;;
47431;SDS011;33183;52.290;6.144;2023-09-08T14:48:33;4.45;;;4.05;;